SCULL ISLAND AK US NWS current weather conditions

sailwx.info

Wind from 090 at 17 knots gusting 19

Air temperature 13.0° C
Dewpoint 7.4° C

Last reported at 2020-Aug-09 01:02 UTC.
Time now 2020-Aug-09 02:06 UTC

Location: N 58°12' W 134°39'.
View on Google Maps.

See reports from other nearby stations

  
Tides and Currents Weather Stations Pressure Air Temp Water Temp Dewpoint Dewpoint Depression Visibility Wind Speed Wind Dir Waves Ship Positions
date/time (UTC)wind fromknots sea level pressurealtimeterstation pressurevisibilityair tempwater tempwave heightnotes
2020-Aug-09 01:02 090 17 gusting 19 13.0
2020-Aug-09 00:52 090 15 gusting 19 12.9
2020-Aug-09 00:42 090 18 gusting 20 12.8
2020-Aug-09 00:33 090 18 gusting 19 12.8
2020-Aug-09 00:24 090 17 gusting 19 12.7
2020-Aug-09 00:12 090 15 gusting 19 12.8
2020-Aug-08 23:52 100 13 gusting 15 12.7
2020-Aug-08 23:42 100 13 gusting 17 12.7
2020-Aug-08 23:32 090 13 gusting 15 12.5
2020-Aug-08 23:22 090 14 gusting 17 12.5
2020-Aug-08 23:13 090 15 gusting 20 12.5
2020-Aug-08 23:05 090 14 gusting 20 12.5
2020-Aug-08 22:52 090 15 gusting 19 12.5
2020-Aug-08 22:42 090 17 gusting 19 12.5
2020-Aug-08 22:32 100 15 gusting 19 12.5
2020-Aug-08 22:22 090 15 gusting 19 12.4
2020-Aug-08 22:12 090 15 gusting 18 12.3
2020-Aug-08 22:02 090 17 gusting 20 12.2
2020-Aug-08 21:52 090 15 gusting 20 12.2
2020-Aug-08 21:42 100 14 gusting 19 12.2
2020-Aug-08 21:33 090 14 gusting 18 12.2
2020-Aug-08 21:22 090 13 gusting 15 12.2
2020-Aug-08 21:12 100 14 gusting 15 12.2
2020-Aug-08 21:03 100 13 gusting 15 12.2
2020-Aug-08 20:53 090 13 gusting 17 12.3
2020-Aug-08 20:44 090 13 gusting 17 12.1
2020-Aug-08 20:33 100 15 gusting 18 12.2
2020-Aug-08 20:23 100 14 gusting 19 12.2
2020-Aug-08 20:13 100 14 gusting 17 12.2
2020-Aug-08 20:02 100 14 gusting 19 12.0
2020-Aug-08 19:53 100 14 gusting 17 12.0
2020-Aug-08 19:42 090 15 gusting 20 12.0
2020-Aug-08 19:33 090 15 gusting 20 11.9
2020-Aug-08 19:22 100 13 gusting 17 11.9
2020-Aug-08 19:13 100 15 gusting 19 11.9
2020-Aug-08 19:02 100 15 gusting 20 11.9
2020-Aug-08 18:52 100 17 gusting 20 11.9
2020-Aug-08 18:42 100 15 gusting 19 11.9
2020-Aug-08 18:32 100 15 gusting 20 12.0
2020-Aug-08 18:22 100 14 gusting 20 11.9
2020-Aug-08 18:12 100 14 gusting 17 11.8
2020-Aug-08 18:02 100 15 gusting 18 11.8
2020-Aug-08 17:52 110 14 gusting 19 11.7
2020-Aug-08 17:42 100 14 gusting 17 11.7
2020-Aug-08 17:33 100 14 gusting 19 11.7
2020-Aug-08 17:22 100 14 gusting 18 11.6
2020-Aug-08 17:12 100 14 gusting 18 11.6
2020-Aug-08 17:02 100 17 gusting 19 11.6
2020-Aug-08 16:52 100 18 gusting 21 11.6
2020-Aug-08 16:42 090 15 gusting 19 11.6
2020-Aug-08 16:32 100 14 gusting 20 11.8
2020-Aug-08 16:22 100 14 gusting 17 11.8
2020-Aug-08 16:12 100 14 gusting 18 11.6
2020-Aug-08 16:02 100 13 gusting 17 11.6
2020-Aug-08 15:52 100 14 gusting 17 11.7
2020-Aug-08 15:42 100 17 gusting 20 11.7
2020-Aug-08 15:32 100 14 gusting 18 11.7
2020-Aug-08 15:22 100 13 gusting 17 11.7
2020-Aug-08 15:12 100 14 gusting 19 11.6
2020-Aug-08 15:03 100 14 gusting 18 11.6
2020-Aug-08 14:53 100 15 gusting 20 11.6
2020-Aug-08 14:43 090 14 gusting 19 11.6
2020-Aug-08 14:33 090 15 gusting 19 11.5
2020-Aug-08 14:22 090 15 gusting 18 11.5
2020-Aug-08 14:12 090 13 gusting 18 11.4
2020-Aug-08 14:02 100 14 gusting 18 11.5
2020-Aug-08 13:52 100 14 gusting 18 11.5
2020-Aug-08 13:44 100 14 gusting 20 11.5
2020-Aug-08 13:33 090 13 gusting 17 11.4
2020-Aug-08 13:22 100 15 gusting 19 11.4
2020-Aug-08 13:12 100 15 gusting 19 11.3
2020-Aug-08 13:02 100 15 gusting 18 11.4
2020-Aug-08 12:52 090 17 gusting 19 11.4
2020-Aug-08 12:43 100 13 gusting 15 11.6
2020-Aug-08 12:32 100 13 gusting 19 11.7
2020-Aug-08 12:22 090 15 gusting 20 11.6
2020-Aug-08 12:12 100 14 gusting 18 11.6
2020-Aug-08 12:02 090 13 gusting 15 11.6
2020-Aug-08 11:52 090 13 gusting 15 11.7
2020-Aug-08 11:42 100 13 gusting 17 11.7
2020-Aug-08 11:32 100 13 gusting 17 11.9
2020-Aug-08 11:22 090 14 gusting 18 11.9
2020-Aug-08 11:12 090 15 gusting 19 11.9
2020-Aug-08 11:02 090 15 gusting 20 11.8
2020-Aug-08 10:53 090 14 gusting 17 12.0
2020-Aug-08 10:42 090 13 gusting 15 11.9
2020-Aug-08 10:32 090 13 gusting 15 11.9
2020-Aug-08 10:23 100 13 gusting 18 11.8
2020-Aug-08 10:13 100 13 gusting 14 11.8
2020-Aug-08 10:02 100 13 gusting 14 11.9
2020-Aug-08 09:52 100 14 gusting 17 12.0
2020-Aug-08 09:42 090 15 gusting 19 11.9
2020-Aug-08 09:32 090 17 gusting 19 12.0
2020-Aug-08 09:22 090 18 gusting 20 12.0
2020-Aug-08 09:12 090 18 gusting 21 12.0
2020-Aug-08 09:03 090 17 gusting 21 12.1
2020-Aug-08 08:53 090 17 gusting 20 12.1
2020-Aug-08 08:42 090 17 gusting 20 12.0
2020-Aug-08 08:33 090 15 gusting 20 11.9
2020-Aug-08 08:22 090 14 gusting 18 11.9
2020-Aug-08 08:12 090 17 gusting 22 11.8
2020-Aug-08 08:02 090 14 gusting 19 11.9
2020-Aug-08 07:52 090 15 gusting 20 11.8
2020-Aug-08 07:44 090 15 gusting 18 11.8
2020-Aug-08 07:33 100 13 gusting 17 11.7
2020-Aug-08 07:23 100 14 gusting 17 11.7
2020-Aug-08 07:12 090 17 gusting 20 11.7
2020-Aug-08 07:02 090 15 gusting 19 11.7
2020-Aug-08 06:52 090 15 gusting 19 11.7
2020-Aug-08 06:42 090 13 gusting 17 11.7
2020-Aug-08 06:32 100 17 gusting 21 11.7
2020-Aug-08 06:22 090 14 gusting 18 11.7
2020-Aug-08 06:12 090 15 gusting 19 11.8
2020-Aug-08 06:03 090 14 gusting 19 11.8
2020-Aug-08 05:52 090 13 gusting 17 11.7
2020-Aug-08 05:42 090 13 gusting 15 11.7
2020-Aug-08 05:32 090 13 gusting 17 11.7
2020-Aug-08 05:22 090 13 gusting 15 11.7
2020-Aug-08 05:12 090 12 gusting 14 11.7
2020-Aug-08 05:03 100 13 gusting 15 11.8
2020-Aug-08 04:52 100 14 gusting 19 11.9
2020-Aug-08 04:42 100 15 gusting 20 11.9
2020-Aug-08 04:33 100 15 gusting 18 11.9
2020-Aug-08 04:23 100 13 gusting 18 11.9
2020-Aug-08 04:12 100 13 gusting 15 11.9
2020-Aug-08 04:02 100 13 gusting 15 11.9
2020-Aug-08 03:52 090 13 gusting 17 12.0
2020-Aug-08 03:42 090 14 gusting 20 12.1
2020-Aug-08 03:32 100 13 gusting 17 12.2
2020-Aug-08 03:22 090 13 gusting 19 12.3
2020-Aug-08 03:12 100 14 gusting 17 12.3
2020-Aug-08 03:03 100 15 gusting 19 12.3
2020-Aug-08 02:53 100 18 gusting 20 12.4
2020-Aug-08 02:43 090 18 gusting 25 12.6
2020-Aug-08 02:33 090 18 gusting 21 12.6
2020-Aug-08 02:22 090 18 gusting 21 12.7
2020-Aug-08 02:12 090 19 gusting 20 12.8
2020-Aug-08 02:02 090 15 gusting 20 12.7
2020-Aug-08 01:52 090 17 gusting 19 12.7
2020-Aug-08 01:44 090 17 gusting 20 12.4
2020-Aug-08 01:32 090 18 gusting 20 12.6
2020-Aug-08 01:22 100 15 gusting 20 12.9
2020-Aug-08 01:13 100 14 gusting 20 13.0
2020-Aug-08 01:02 100 15 gusting 19 12.8
2020-Aug-08 00:52 100 14 gusting 17 12.8
2020-Aug-08 00:42 100 17 gusting 20 12.7
2020-Aug-08 00:33 100 17 gusting 18 12.8
2020-Aug-08 00:22 100 13 gusting 17 12.8
2020-Aug-08 00:12 090 14 gusting 17 12.9
2020-Aug-07 23:53 100 13 gusting 15 12.8
2020-Aug-07 23:44 100 13 gusting 15 12.7
2020-Aug-07 23:32 090 13 gusting 17 12.7
2020-Aug-07 23:22 100 13 gusting 14 12.7
2020-Aug-07 23:13 090 13 gusting 17 12.9
2020-Aug-07 23:03 090 13 gusting 15 13.0
2020-Aug-07 22:52 090 13 gusting 15 12.9
2020-Aug-07 22:42 090 14 gusting 17 12.9
2020-Aug-07 22:34 090 14 gusting 20 12.9
2020-Aug-07 22:22 090 17 gusting 20 12.8
2020-Aug-07 22:12 090 15 gusting 20 12.6
2020-Aug-07 22:03 090 15 gusting 20 12.5
2020-Aug-07 21:52 090 17 gusting 19 12.4
2020-Aug-07 21:42 090 15 gusting 19 12.3
2020-Aug-07 21:32 090 17 gusting 20 12.4
2020-Aug-07 21:24 090 15 gusting 20 12.4
2020-Aug-07 21:12 090 17 gusting 20 12.5
2020-Aug-07 21:03 090 18 gusting 20 12.3
2020-Aug-07 20:54 090 19 gusting 21 12.2
2020-Aug-07 20:44 090 18 gusting 20 12.0
2020-Aug-07 20:33 090 18 gusting 22 11.9
2020-Aug-07 20:23 090 18 gusting 24 11.8
2020-Aug-07 20:12 090 20 gusting 24 11.7
2020-Aug-07 20:02 090 18 gusting 24 11.6
2020-Aug-07 19:52 090 18 gusting 22 11.6
2020-Aug-07 19:44 090 20 gusting 22 11.5
2020-Aug-07 19:33 100 20 gusting 25 11.5
2020-Aug-07 19:23 100 22 gusting 27 11.5
2020-Aug-07 19:13 100 24 gusting 27 11.6
2020-Aug-07 19:02 100 26 gusting 29 11.7
2020-Aug-07 18:52 100 26 gusting 31 11.6
2020-Aug-07 18:43 100 25 gusting 28 11.6
2020-Aug-07 18:32 100 27 gusting 31 11.7
2020-Aug-07 18:22 100 26 gusting 29 11.6
2020-Aug-07 18:12 100 26 gusting 31 11.6
2020-Aug-07 18:02 100 27 gusting 31 11.6
2020-Aug-07 17:52 100 27 gusting 31 11.7
2020-Aug-07 17:42 100 27 gusting 32 11.6
2020-Aug-07 17:32 100 27 gusting 34 11.5
2020-Aug-07 17:22 100 27 gusting 34 11.6
2020-Aug-07 17:12 100 29 gusting 34 11.7
2020-Aug-07 17:04 100 29 gusting 35 11.8
2020-Aug-07 16:53 100 29 gusting 34 12.0
2020-Aug-07 16:42 100 29 gusting 35 12.1
2020-Aug-07 16:32 100 29 gusting 34 12.0
2020-Aug-07 16:23 100 29 gusting 34 11.9
2020-Aug-07 16:12 100 29 gusting 34 11.8
2020-Aug-07 16:02 100 27 gusting 34 11.8
2020-Aug-07 15:52 100 27 gusting 31 11.7
2020-Aug-07 15:42 100 27 gusting 34 11.7
2020-Aug-07 15:33 100 26 gusting 31 11.7
2020-Aug-07 15:23 100 27 gusting 31 11.7
2020-Aug-07 15:12 100 27 gusting 32 11.8
2020-Aug-07 15:02 100 27 gusting 34 11.9
2020-Aug-07 14:52 100 26 gusting 31 11.7
2020-Aug-07 14:43 100 24 gusting 31 11.6
2020-Aug-07 14:32 100 22 gusting 26 11.6
2020-Aug-07 14:22 100 22 gusting 27 11.6
2020-Aug-07 14:13 100 21 gusting 26 11.6
2020-Aug-07 14:02 100 21 gusting 25 11.6
2020-Aug-07 13:52 100 22 gusting 26 11.6
2020-Aug-07 13:42 090 22 gusting 26 11.6
2020-Aug-07 13:33 100 22 gusting 26 11.6
2020-Aug-07 13:22 100 20 gusting 25 11.7
2020-Aug-07 13:12 100 21 gusting 26 11.8
2020-Aug-07 13:02 100 20 gusting 26 11.8
2020-Aug-07 12:52 100 20 gusting 24 11.8
2020-Aug-07 12:42 100 20 gusting 24 11.9
2020-Aug-07 12:32 100 20 gusting 26 11.9
2020-Aug-07 12:22 090 21 gusting 25 11.9
2020-Aug-07 12:13 100 20 gusting 25 12.0
2020-Aug-07 12:02 100 20 gusting 25 12.0
2020-Aug-07 11:52 100 20 gusting 25 11.9
2020-Aug-07 11:42 100 20 gusting 26 12.1
2020-Aug-07 11:32 100 20 gusting 25 12.1
2020-Aug-07 11:22 110 20 gusting 24 12.3
2020-Aug-07 11:12 110 20 gusting 25 12.4
2020-Aug-07 11:02 110 18 gusting 21 12.2
2020-Aug-07 10:52 100 19 gusting 21 12.2
2020-Aug-07 10:42 110 18 gusting 24 12.3
2020-Aug-07 10:32 100 20 gusting 25 12.2
2020-Aug-07 10:23 090 20 gusting 24 12.1
2020-Aug-07 10:13 100 20 gusting 24 12.0
2020-Aug-07 10:02 100 20 gusting 22 11.9
2020-Aug-07 09:52 100 19 gusting 21 11.9
2020-Aug-07 09:43 100 19 gusting 21 12.1
2020-Aug-07 09:32 110 20 gusting 22 12.2
2020-Aug-07 09:22 110 20 gusting 26 12.3
2020-Aug-07 09:12 110 19 gusting 21 12.5
2020-Aug-07 09:03 110 20 gusting 25 12.5
2020-Aug-07 08:52 110 20 gusting 26 12.5
2020-Aug-07 08:43 110 20 gusting 27 12.6
2020-Aug-07 08:33 100 25 gusting 27 12.8
2020-Aug-07 08:23 100 22 gusting 26 12.6
2020-Aug-07 08:13 100 20 gusting 26 12.6
2020-Aug-07 08:02 100 22 gusting 27 12.5
2020-Aug-07 07:52 090 24 gusting 31 12.5
2020-Aug-07 07:42 090 22 gusting 27 12.6
2020-Aug-07 07:32 100 22 gusting 27 12.5
2020-Aug-07 07:22 100 21 gusting 26 12.5
2020-Aug-07 07:12 100 20 gusting 25 12.3
2020-Aug-07 07:02 090 20 gusting 22 12.2
2020-Aug-07 06:52 090 20 gusting 26 12.1
2020-Aug-07 06:42 090 21 gusting 26 12.0
2020-Aug-07 06:32 100 20 gusting 25 12.0
2020-Aug-07 06:22 100 20 gusting 22 12.0
2020-Aug-07 06:12 110 20 gusting 25 12.1
2020-Aug-07 06:02 100 22 gusting 26 12.1
2020-Aug-07 05:52 110 20 gusting 24 12.2
2020-Aug-07 05:42 110 19 gusting 21 12.1
2020-Aug-07 05:32 110 20 gusting 22 12.4
2020-Aug-07 05:22 110 21 gusting 27 12.5
2020-Aug-07 05:13 100 25 gusting 27 12.4
2020-Aug-07 05:02 100 21 gusting 25 12.4
2020-Aug-07 04:52 100 22 gusting 27 12.6
2020-Aug-07 04:42 100 22 gusting 27 12.8
2020-Aug-07 04:32 100 19 gusting 22 13.2
2020-Aug-07 04:22 110 19 gusting 21 13.4
2020-Aug-07 04:13 100 18 gusting 21 13.3
2020-Aug-07 04:02 100 17 gusting 21 13.6
2020-Aug-07 03:52 110 15 gusting 19 13.5
2020-Aug-07 03:42 110 14 gusting 19 13.6
2020-Aug-07 03:33 120 14 gusting 19 13.7
2020-Aug-07 03:22 110 17 gusting 20 13.5
2020-Aug-07 03:12 110 17 gusting 20 13.6
2020-Aug-07 03:03 120 17 gusting 20 13.8
2020-Aug-07 02:53 110 17 gusting 20 14.1
2020-Aug-07 02:43 100 17 gusting 21 14.0
2020-Aug-07 02:33 100 14 gusting 20 13.9
2020-Aug-07 02:23 110 11 gusting 15 14.6
2020-Aug-07 02:12 100 9 gusting 14 14.9
2020-Aug-07 02:02 130 6 gusting 13 15.0